Time;durP1;ratioP1;P1;durP2;ratioP2;P2;SDS_P1;SDS_P2;PMS_P1;PMS_P2;Temp;Humidity;BMP_temperature;BMP_pressure;BME280_temperature;BME280_humidity;BME280_pressure;Samples;Min_cycle;Max_cycle;Signal;HPM_P1;HPM_P2
2024/01/12 00:02:16;;;;;;;8.02;4.78;;;13.50;75.00;;;;;;6188492;23;20030;-80
2024/01/12 00:04:42;;;;;;;7.20;4.55;;;13.60;75.00;;;;;;6188490;23;20431;-80
2024/01/12 00:07:07;;;;;;;8.10;5.20;;;13.60;75.00;;;;;;6188242;23;20036;-80
2024/01/12 00:09:33;;;;;;;7.55;4.97;;;13.60;75.00;;;;;;6188149;23;20005;-80
2024/01/12 00:11:58;;;;;;;7.97;5.10;;;13.60;75.00;;;;;;6188050;23;20028;-81
2024/01/12 00:14:24;;;;;;;7.68;4.70;;;13.50;75.50;;;;;;6188081;23;20007;-80
2024/01/12 00:16:49;;;;;;;7.72;4.95;;;13.50;74.90;;;;;;6187962;23;20382;-80
2024/01/12 00:19:15;;;;;;;8.13;5.07;;;13.50;74.90;;;;;;6188454;23;20028;-80
2024/01/12 00:21:44;;;;;;;7.35;4.80;;;13.50;75.00;;;;;;6187629;23;20588;-79
2024/01/12 00:24:09;;;;;;;7.72;5.00;;;13.50;75.00;;;;;;6214630;23;20313;-80
2024/01/12 00:26:35;;;;;;;7.65;4.78;;;13.50;75.00;;;;;;6188116;23;20024;-80
2024/01/12 00:29:00;;;;;;;7.68;4.85;;;13.50;75.00;;;;;;6187969;23;20001;-80
2024/01/12 00:31:26;;;;;;;8.13;4.95;;;13.50;75.00;;;;;;6187981;23;20462;-79
2024/01/12 00:33:51;;;;;;;8.43;5.30;;;13.50;75.00;;;;;;6187607;23;20001;-80
2024/01/12 00:36:17;;;;;;;7.90;5.28;;;13.50;75.00;;;;;;6188038;23;20007;-80
2024/01/12 00:38:42;;;;;;;7.97;5.20;;;13.50;75.10;;;;;;6187922;23;20766;-80
2024/01/12 00:41:08;;;;;;;8.48;5.13;;;13.50;75.10;;;;;;6214519;23;20123;-80
2024/01/12 00:43:34;;;;;;;8.43;5.20;;;13.50;75.10;;;;;;6187912;23;20309;-80
2024/01/12 00:46:00;;;;;;;8.70;5.45;;;13.50;75.10;;;;;;6187758;23;20087;-80
2024/01/12 00:48:26;;;;;;;8.02;5.15;;;13.50;75.10;;;;;;6214587;23;20013;-80
2024/01/12 00:50:51;;;;;;;8.13;5.40;;;13.40;75.30;;;;;;6188311;23;20087;-80
2024/01/12 00:53:17;;;;;;;7.95;5.20;;;13.50;75.20;;;;;;6188289;23;20000;-80
2024/01/12 00:55:42;;;;;;;7.72;5.03;;;13.40;75.10;;;;;;6187521;23;20008;-79
2024/01/12 00:58:08;;;;;;;8.75;5.45;;;13.50;75.10;;;;;;6187528;23;20007;-81
2024/01/12 01:00:33;;;;;;;8.55;5.30;;;13.40;75.10;;;;;;6187803;23;20007;-81
2024/01/12 01:03:02;;;;;;;8.00;5.15;;;13.50;75.10;;;;;;6187798;23;20320;-80
2024/01/12 01:05:28;;;;;;;8.48;5.25;;;13.40;75.10;;;;;;6187332;23;20001;-80
2024/01/12 01:07:53;;;;;;;7.60;5.00;;;13.50;75.10;;;;;;6187741;23;20008;-81
2024/01/12 01:10:19;;;;;;;8.68;5.40;;;13.50;75.20;;;;;;6214336;23;20001;-80
2024/01/12 01:12:44;;;;;;;8.32;5.15;;;13.50;75.20;;;;;;6187849;23;20005;-80
2024/01/12 01:15:13;;;;;;;7.60;5.18;;;13.50;75.20;;;;;;6214502;23;20007;-80
2024/01/12 01:17:38;;;;;;;8.30;5.38;;;13.50;75.20;;;;;;6187450;23;20076;-79
2024/01/12 01:20:05;;;;;;;8.82;5.28;;;13.50;75.20;;;;;;6187571;23;20440;-80
2024/01/12 01:22:33;;;;;;;8.57;5.55;;;13.40;75.20;;;;;;6187444;23;20027;-80
2024/01/12 01:24:59;;;;;;;8.20;5.18;;;13.40;75.20;;;;;;6187392;23;20036;-80
2024/01/12 01:27:25;;;;;;;8.25;5.50;;;13.40;75.10;;;;;;6213620;23;20009;-80
2024/01/12 01:29:50;;;;;;;8.68;5.38;;;13.40;75.20;;;;;;6213754;23;20000;-79
2024/01/12 01:32:16;;;;;;;8.65;5.60;;;13.40;75.20;;;;;;6187484;23;20009;-79
2024/01/12 01:34:41;;;;;;;9.38;5.65;;;13.40;75.20;;;;;;6186875;23;20001;-80
2024/01/12 01:37:07;;;;;;;8.88;5.70;;;13.40;75.20;;;;;;6187007;23;20001;-80
2024/01/12 01:39:32;;;;;;;9.25;5.47;;;13.40;75.20;;;;;;6187572;23;20007;-80
2024/01/12 01:41:58;;;;;;;8.23;5.50;;;13.40;75.20;;;;;;6187316;23;20012;-79
2024/01/12 01:44:25;;;;;;;8.77;5.88;;;13.40;75.30;;;;;;6187521;23;20012;-79
2024/01/12 01:46:51;;;;;;;9.07;5.55;;;13.40;75.30;;;;;;6186813;23;20009;-80
2024/01/12 01:49:17;;;;;;;8.13;5.32;;;13.40;75.30;;;;;;6187371;23;20462;-80
2024/01/12 01:51:43;;;;;;;8.95;5.47;;;13.30;75.30;;;;;;6187120;23;20001;-80
2024/01/12 01:54:08;;;;;;;8.75;5.50;;;13.40;75.30;;;;;;6187100;23;20004;-79
2024/01/12 01:56:38;;;;;;;8.93;5.75;;;13.40;75.30;;;;;;6186747;23;20001;-80
2024/01/12 01:59:03;;;;;;;8.90;5.97;;;13.40;75.20;;;;;;6187001;23;20343;-80
2024/01/12 02:01:30;;;;;;;9.00;5.65;;;13.40;75.30;;;;;;6213986;23;20009;-80
2024/01/12 02:03:56;;;;;;;8.68;5.72;;;13.40;75.30;;;;;;6187055;23;20048;-79
2024/01/12 02:06:22;;;;;;;8.45;5.80;;;13.40;75.30;;;;;;6184794;23;20055;-79
2024/01/12 02:08:49;;;;;;;9.35;5.72;;;13.40;75.30;;;;;;6186226;23;20321;-79
2024/01/12 02:11:14;;;;;;;8.98;5.93;;;13.40;75.40;;;;;;6186367;23;20004;-78
2024/01/12 02:13:40;;;;;;;8.32;5.60;;;13.40;75.40;;;;;;6186958;23;20055;-80
2024/01/12 02:16:06;;;;;;;8.70;5.82;;;13.30;75.30;;;;;;6186158;23;20008;-79
2024/01/12 02:18:31;;;;;;;9.75;5.85;;;13.40;75.40;;;;;;6186965;23;20005;-80
2024/01/12 02:20:57;;;;;;;8.93;5.70;;;13.30;75.30;;;;;;6186903;23;20049;-80
2024/01/12 02:23:23;;;;;;;9.15;5.72;;;13.30;75.30;;;;;;6186714;23;20019;-80
2024/01/12 02:25:49;;;;;;;8.70;5.80;;;13.40;75.40;;;;;;6186614;23;20001;-77
2024/01/12 02:28:15;;;;;;;9.63;6.45;;;13.40;75.40;;;;;;6187044;23;20412;-80
2024/01/12 02:30:41;;;;;;;9.65;5.90;;;13.30;75.30;;;;;;6213567;23;19996;-79
2024/01/12 02:33:07;;;;;;;8.57;5.68;;;13.30;75.40;;;;;;6186818;23;20005;-80
2024/01/12 02:35:33;;;;;;;7.85;5.35;;;13.30;75.40;;;;;;6186746;23;20004;-79
2024/01/12 02:37:59;;;;;;;9.02;5.82;;;13.30;75.50;;;;;;6186687;23;20004;-79
2024/01/12 02:40:24;;;;;;;8.95;5.75;;;13.30;75.40;;;;;;6187019;23;20005;-80
2024/01/12 02:42:50;;;;;;;9.70;6.10;;;13.40;75.40;;;;;;6186715;23;20004;-80
2024/01/12 02:45:15;;;;;;;9.32;6.20;;;13.30;75.40;;;;;;6187047;23;20008;-80
2024/01/12 02:47:42;;;;;;;10.32;6.60;;;13.30;75.50;;;;;;6187640;23;20087;-80
2024/01/12 02:50:08;;;;;;;10.07;6.32;;;13.30;75.40;;;;;;6188767;23;20008;-80
2024/01/12 02:52:35;;;;;;;10.07;6.55;;;13.30;75.50;;;;;;6188580;23;20658;-80
2024/01/12 02:55:05;;;;;;;9.43;6.13;;;13.30;75.50;;;;;;6188869;23;20007;-79
2024/01/12 02:57:33;;;;;;;10.13;6.32;;;13.30;75.50;;;;;;6188320;23;20344;-79
2024/01/12 02:59:59;;;;;;;9.45;6.07;;;13.30;75.50;;;;;;6188712;23;20510;-79
2024/01/12 03:02:24;;;;;;;9.10;5.85;;;13.30;75.50;;;;;;6215426;23;20005;-79
2024/01/12 03:04:50;;;;;;;9.73;6.38;;;13.30;75.40;;;;;;6215260;23;20009;-79
2024/01/12 03:07:16;;;;;;;9.25;6.13;;;13.30;75.50;;;;;;6188779;23;20347;-80
2024/01/12 03:09:41;;;;;;;9.93;6.40;;;13.30;75.60;;;;;;6188751;23;20013;-80
2024/01/12 03:12:07;;;;;;;9.48;6.18;;;13.30;75.50;;;;;;6188278;23;20097;-80
2024/01/12 03:14:33;;;;;;;9.77;6.15;;;13.30;75.50;;;;;;6188957;23;20001;-80
2024/01/12 03:16:58;;;;;;;9.35;5.93;;;13.30;76.00;;;;;;6188675;23;20321;-80
2024/01/12 03:19:24;;;;;;;10.50;6.35;;;13.20;75.50;;;;;;6188526;23;20012;-80
2024/01/12 03:21:49;;;;;;;10.23;6.80;;;13.30;75.60;;;;;;6188826;23;20000;-80
2024/01/12 03:24:14;;;;;;;9.80;6.15;;;13.20;75.50;;;;;;6188905;23;20058;-80
2024/01/12 03:26:40;;;;;;;10.20;6.53;;;13.30;75.50;;;;;;6188403;23;20036;-80
2024/01/12 03:29:05;;;;;;;9.90;6.50;;;13.30;75.40;;;;;;6188441;23;20000;-80
2024/01/12 03:31:31;;;;;;;9.30;6.13;;;13.30;75.40;;;;;;6188268;23;20081;-81
2024/01/12 03:33:57;;;;;;;8.80;5.88;;;13.20;75.40;;;;;;6188602;23;20004;-80
2024/01/12 03:36:23;;;;;;;9.55;6.35;;;13.20;75.60;;;;;;6214703;23;20001;-80
2024/01/12 03:38:49;;;;;;;11.25;6.55;;;13.20;75.60;;;;;;6188567;23;20005;-80
2024/01/12 03:41:14;;;;;;;9.68;6.35;;;13.20;75.60;;;;;;6214924;23;20005;-80
2024/01/12 03:43:40;;;;;;;9.73;6.13;;;13.20;75.60;;;;;;6188733;23;20012;-80
2024/01/12 03:46:06;;;;;;;10.02;6.35;;;13.20;75.60;;;;;;6188149;23;20016;-80
2024/01/12 03:48:32;;;;;;;9.43;5.88;;;13.20;75.60;;;;;;6185707;23;20004;-79
2024/01/12 03:50:57;;;;;;;10.23;6.55;;;13.20;75.60;;;;;;6188098;23;20034;-80
2024/01/12 03:53:23;;;;;;;9.77;6.43;;;13.20;75.60;;;;;;6188568;23;20347;-80
2024/01/12 03:55:48;;;;;;;10.00;6.10;;;13.20;75.60;;;;;;6188529;23;20000;-79
2024/01/12 03:58:14;;;;;;;9.48;6.20;;;13.20;75.60;;;;;;6214512;23;20003;-80
2024/01/12 04:00:40;;;;;;;10.25;6.50;;;13.20;75.70;;;;;;6188566;23;20078;-80
2024/01/12 04:03:06;;;;;;;9.18;6.32;;;13.20;75.70;;;;;;6188047;23;20475;-80
2024/01/12 04:05:31;;;;;;;10.25;6.78;;;13.20;75.70;;;;;;6188628;23;20001;-80
2024/01/12 04:07:57;;;;;;;8.55;5.63;;;13.20;75.60;;;;;;6188096;23;20005;-80
2024/01/12 04:10:22;;;;;;;10.00;6.60;;;13.20;75.70;;;;;;6188123;23;20079;-81
2024/01/12 04:12:48;;;;;;;9.20;6.03;;;13.20;75.70;;;;;;6188160;23;19996;-79
2024/01/12 04:15:13;;;;;;;10.45;6.50;;;13.20;75.70;;;;;;6188346;23;19997;-80
2024/01/12 04:17:39;;;;;;;9.75;6.43;;;13.20;75.70;;;;;;6214502;23;20024;-79
2024/01/12 04:20:06;;;;;;;9.50;6.03;;;13.20;75.70;;;;;;6188686;23;20027;-80
2024/01/12 04:22:32;;;;;;;10.20;6.18;;;13.10;75.70;;;;;;6188171;23;20059;-80
2024/01/12 04:24:57;;;;;;;11.20;7.25;;;13.10;75.70;;;;;;6188356;23;20012;-80
2024/01/12 04:27:25;;;;;;;8.80;5.78;;;13.20;75.80;;;;;;6188104;23;20032;-81
2024/01/12 04:29:50;;;;;;;10.80;6.93;;;13.20;75.70;;;;;;6188530;23;20033;-81
2024/01/12 04:32:16;;;;;;;10.05;6.53;;;13.20;75.80;;;;;;6188199;23;20001;-81
2024/01/12 04:34:41;;;;;;;10.02;6.65;;;13.10;75.80;;;;;;6188381;23;20051;-80
2024/01/12 04:37:07;;;;;;;9.75;5.95;;;13.10;75.80;;;;;;6187764;23;20035;-80
2024/01/12 04:39:32;;;;;;;9.90;6.30;;;13.10;75.80;;;;;;6188149;23;20070;-80
2024/01/12 04:41:58;;;;;;;10.13;6.22;;;13.10;75.80;;;;;;6188173;23;20005;-81
2024/01/12 04:44:23;;;;;;;9.30;6.03;;;13.10;75.70;;;;;;6214698;23;20005;-81
2024/01/12 04:46:50;;;;;;;10.05;6.47;;;13.10;75.80;;;;;;6214532;23;20001;-80
2024/01/12 04:49:16;;;;;;;9.75;6.43;;;13.10;75.80;;;;;;6187797;23;20146;-79
2024/01/12 04:51:41;;;;;;;10.98;6.60;;;13.10;75.80;;;;;;6187901;23;20036;-80
2024/01/12 04:54:06;;;;;;;9.00;5.80;;;13.10;75.80;;;;;;6214629;23;20083;-80
2024/01/12 04:56:32;;;;;;;9.30;5.65;;;13.10;75.80;;;;;;6214612;23;20305;-80
2024/01/12 04:58:57;;;;;;;10.20;6.85;;;13.10;75.90;;;;;;6187768;23;20008;-80
2024/01/12 05:01:23;;;;;;;9.93;6.25;;;13.10;75.90;;;;;;6188040;23;20028;-79
2024/01/12 05:03:48;;;;;;;9.20;5.88;;;13.10;75.90;;;;;;6188152;23;20008;-80
2024/01/12 05:06:14;;;;;;;9.30;5.80;;;13.10;76.00;;;;;;6187551;23;20008;-80
2024/01/12 05:08:39;;;;;;;9.70;6.30;;;13.10;76.00;;;;;;6187544;23;20028;-80
2024/01/12 05:11:05;;;;;;;9.38;6.05;;;13.10;75.90;;;;;;6187389;23;20003;-80
2024/01/12 05:13:30;;;;;;;10.23;6.30;;;13.10;76.00;;;;;;6187936;23;20001;-80
2024/01/12 05:15:56;;;;;;;9.45;5.78;;;13.10;76.00;;;;;;6214349;23;20035;-80
2024/01/12 05:18:22;;;;;;;9.27;6.10;;;13.10;75.90;;;;;;6187703;23;20325;-81
2024/01/12 05:20:47;;;;;;;9.63;5.97;;;13.10;75.90;;;;;;6187700;23;20027;-81
2024/01/12 05:23:13;;;;;;;9.60;6.18;;;13.10;75.90;;;;;;6187742;23;20016;-80
2024/01/12 05:25:38;;;;;;;9.85;5.95;;;13.10;76.00;;;;;;6214287;23;20001;-80
2024/01/12 05:28:04;;;;;;;10.25;6.05;;;13.10;76.00;;;;;;6187537;23;20009;-80
2024/01/12 05:30:30;;;;;;;9.85;6.35;;;13.00;75.90;;;;;;6187229;23;20054;-80
2024/01/12 05:32:56;;;;;;;8.70;5.63;;;13.00;76.00;;;;;;6187807;23;20036;-80
2024/01/12 05:35:21;;;;;;;9.68;6.00;;;13.00;76.00;;;;;;6187630;23;20007;-80
2024/01/12 05:37:47;;;;;;;9.65;5.95;;;13.00;76.00;;;;;;6214003;23;20076;-80
2024/01/12 05:40:12;;;;;;;9.70;5.82;;;13.00;76.00;;;;;;6187580;23;20012;-80
2024/01/12 05:42:37;;;;;;;9.20;5.78;;;13.00;76.00;;;;;;6187721;23;20024;-80
2024/01/12 05:45:03;;;;;;;9.10;6.00;;;13.00;76.00;;;;;;6187555;23;20005;-80
2024/01/12 05:47:29;;;;;;;9.65;6.15;;;13.00;76.00;;;;;;6186509;23;20503;-80
2024/01/12 05:49:54;;;;;;;9.98;5.47;;;13.00;76.00;;;;;;6185984;23;20058;-80
2024/01/12 05:52:20;;;;;;;9.15;5.93;;;13.00;76.10;;;;;;6185535;23;20001;-79
2024/01/12 05:54:45;;;;;;;8.88;5.85;;;13.00;76.10;;;;;;6186834;23;20058;-81
2024/01/12 05:57:11;;;;;;;8.65;5.97;;;13.00;76.00;;;;;;6193150;23;20027;-81
2024/01/12 05:59:36;;;;;;;9.55;5.60;;;13.00;76.10;;;;;;6185739;23;20114;-80
2024/01/12 06:02:03;;;;;;;8.70;5.32;;;13.00;76.00;;;;;;6183805;23;20360;-80
2024/01/12 06:04:30;;;;;;;9.00;5.45;;;13.00;76.00;;;;;;6161639;23;20064;-80
2024/01/12 06:06:58;;;;;;;9.15;5.55;;;13.00;76.10;;;;;;6186747;23;20005;-80
2024/01/12 06:09:24;;;;;;;8.55;5.45;;;13.00;76.10;;;;;;6186703;23;20100;-80
2024/01/12 06:11:51;;;;;;;9.95;6.03;;;13.00;76.10;;;;;;6187754;23;20027;-82
2024/01/12 06:14:59;;;;;;;8.90;5.22;;;13.00;76.20;;;;;;6193938;23;20015;-82
2024/01/12 06:17:43;;;;;;;9.15;5.68;;;13.00;76.10;;;;;;6215726;23;20001;-80
2024/01/12 06:20:10;;;;;;;9.00;5.30;;;13.10;76.10;;;;;;6185660;23;20088;-79
2024/01/12 06:22:35;;;;;;;9.60;5.55;;;13.00;76.10;;;;;;6187569;23;20009;-81
2024/01/12 06:25:01;;;;;;;8.68;5.50;;;13.00;76.20;;;;;;6214515;23;20031;-78
2024/01/12 06:27:27;;;;;;;9.52;6.00;;;13.00;76.20;;;;;;6188149;23;20021;-80
2024/01/12 06:29:54;;;;;;;9.05;5.43;;;13.00;76.20;;;;;;6192811;23;20016;-78
2024/01/12 06:32:21;;;;;;;9.68;5.50;;;13.10;76.20;;;;;;6214203;23;20084;-81
2024/01/12 06:38:10;;;;;;;8.88;5.40;;;12.90;76.10;;;;;;6217376;23;20015;-78
2024/01/12 06:40:37;;;;;;;9.13;5.32;;;12.90;76.20;;;;;;6186718;23;20449;-79
2024/01/12 06:43:03;;;;;;;7.63;4.88;;;12.80;76.10;;;;;;6186992;23;20059;-80
2024/01/12 06:45:29;;;;;;;8.65;5.40;;;12.90;76.20;;;;;;6213713;23;20004;-78
2024/01/12 06:47:55;;;;;;;9.90;5.80;;;12.90;76.20;;;;;;6186863;23;20063;-79
2024/01/12 06:50:21;;;;;;;8.82;5.38;;;12.90;76.20;;;;;;6185899;23;20443;-79
2024/01/12 06:52:47;;;;;;;8.85;5.68;;;12.90;76.20;;;;;;6187958;23;20016;-80
2024/01/12 06:55:12;;;;;;;8.13;5.10;;;12.80;76.20;;;;;;6187551;23;20690;-80
2024/01/12 06:57:43;;;;;;;8.98;5.40;;;12.90;76.20;;;;;;6187268;23;20005;-82
2024/01/12 07:00:09;;;;;;;8.45;5.05;;;12.90;76.30;;;;;;6184876;23;20004;-80
2024/01/12 07:02:35;;;;;;;9.23;5.60;;;12.90;76.20;;;;;;6185024;23;20039;-78
2024/01/12 07:05:00;;;;;;;8.60;4.97;;;12.90;76.20;;;;;;6186216;23;20032;-80
2024/01/12 07:07:26;;;;;;;8.55;4.90;;;12.90;76.20;;;;;;6185218;23;20013;-78
2024/01/12 07:09:51;;;;;;;8.90;4.93;;;12.90;76.30;;;;;;6185272;23;20051;-78
2024/01/12 07:12:17;;;;;;;8.27;5.47;;;12.90;76.30;;;;;;6185967;23;20011;-78
2024/01/12 07:14:42;;;;;;;8.15;4.82;;;12.90;76.20;;;;;;6186163;23;20020;-79
2024/01/12 07:17:08;;;;;;;8.88;5.38;;;12.90;76.30;;;;;;6184907;23;20004;-79
2024/01/12 07:19:34;;;;;;;7.70;4.85;;;12.90;76.30;;;;;;6185188;23;20019;-78
2024/01/12 07:21:59;;;;;;;7.60;4.65;;;12.80;76.30;;;;;;6212368;23;20004;-79
2024/01/12 07:24:25;;;;;;;9.50;4.70;;;12.90;76.40;;;;;;6185696;23;20058;-80
2024/01/12 07:26:50;;;;;;;8.20;4.85;;;12.80;76.30;;;;;;6184481;23;20016;-78
2024/01/12 07:29:16;;;;;;;9.00;5.18;;;12.90;76.30;;;;;;6185174;23;20016;-78
2024/01/12 07:35:18;;;;;;;8.23;5.07;;;12.90;76.40;;;;;;6172957;23;20051;-78
2024/01/12 07:37:51;;;;;;;8.43;4.60;;;12.90;76.30;;;;;;6185260;23;20005;-78
2024/01/12 07:40:43;;;;;;;8.27;4.80;;;12.90;76.40;;;;;;6184987;23;20087;-78
2024/01/12 07:43:35;;;;;;;7.85;4.70;;;12.90;76.40;;;;;;6181892;23;20686;-79
2024/01/12 07:46:20;;;;;;;8.13;4.78;;;12.80;76.40;;;;;;6155269;23;20009;-79
2024/01/12 07:48:57;;;;;;;8.63;5.05;;;12.80;76.40;;;;;;6154340;23;20016;-79
2024/01/12 07:51:40;;;;;;;7.72;4.68;;;12.90;76.40;;;;;;6156333;23;20001;-79
2024/01/12 07:54:14;;;;;;;7.68;4.65;;;12.70;76.30;;;;;;6154777;23;20005;-79
2024/01/12 07:57:08;;;;;;;7.90;4.68;;;12.80;76.40;;;;;;6155919;23;20008;-80
2024/01/12 07:59:45;;;;;;;7.63;4.30;;;12.80;76.40;;;;;;6155043;23;20009;-79
2024/01/12 08:02:19;;;;;;;8.25;4.63;;;12.90;76.50;;;;;;6156500;23;20036;-79
2024/01/12 08:04:55;;;;;;;8.18;5.10;;;12.80;76.40;;;;;;6155970;23;20029;-78
2024/01/12 08:07:21;;;;;;;7.35;4.80;;;12.60;76.30;;;;;;6156040;23;20036;-78
2024/01/12 08:09:55;;;;;;;7.93;4.57;;;12.70;76.40;;;;;;6182954;23;20002;-78
2024/01/12 08:13:04;;;;;;;8.35;4.65;;;12.90;76.60;;;;;;6182794;23;20004;-80
2024/01/12 08:15:29;;;;;;;8.75;4.82;;;12.80;76.50;;;;;;6182506;23;20008;-80
2024/01/12 08:18:07;;;;;;;8.43;4.80;;;12.80;76.50;;;;;;6155797;23;20001;-80
2024/01/12 08:20:35;;;;;;;9.52;4.60;;;12.70;76.50;;;;;;6156222;23;20139;-80
2024/01/12 08:23:07;;;;;;;8.18;4.40;;;12.70;76.50;;;;;;6156681;23;20007;-81
2024/01/12 08:25:38;;;;;;;;;;;12.70;76.50;;;;;;6156562;23;20009;-80
2024/01/12 08:28:07;;;;;;;8.20;4.68;;;12.70;76.40;;;;;;6155867;23;19900;-79
2024/01/12 08:30:34;;;;;;;8.23;4.43;;;12.80;76.60;;;;;;6182471;23;20060;-80
2024/01/12 08:33:06;;;;;;;8.32;4.50;;;12.80;76.60;;;;;;6155962;23;20008;-79
2024/01/12 08:36:22;;;;;;;8.15;4.70;;;12.70;76.50;;;;;;6183490;23;20021;-80
2024/01/12 08:41:55;;;;;;;7.80;4.72;;;12.70;76.50;;;;;;6182379;23;20046;-80
2024/01/12 08:47:58;;;;;;;8.50;3.92;;;12.70;76.40;;;;;;6194630;23;19911;-82
2024/01/12 08:51:13;;;;;;;10.13;4.65;;;12.70;76.40;;;;;;6155373;23;20040;-78
2024/01/12 08:54:02;;;;;;;9.05;4.65;;;12.60;76.20;;;;;;6156686;23;20001;-80
2024/01/12 08:56:33;;;;;;;8.52;4.90;;;12.70;76.30;;;;;;6155681;23;20028;-79
2024/01/12 08:59:01;;;;;;;11.93;4.50;;;12.90;76.30;;;;;;6157003;23;20088;-79
2024/01/12 09:07:08;;;;;;;12.45;4.93;;;12.70;76.40;;;;;;6212564;23;20016;-79
2024/01/12 09:10:17;;;;;;;10.65;4.38;;;12.70;76.40;;;;;;6186397;23;20092;-79
2024/01/12 09:13:53;;;;;;;;;;;;;;;;;;;;;
2024/01/12 09:16:57;;;;;;;9.10;4.43;;;12.60;76.30;;;;;;6207805;23;20005;-80
2024/01/12 09:30:27;;;;;;;10.93;4.60;;;12.70;76.50;;;;;;5961870;24;20013;-80
2024/01/12 09:33:10;;;;;;;8.93;4.57;;;12.60;76.50;;;;;;5966714;23;20023;-79
2024/01/12 09:42:27;;;;;;;11.98;4.63;;;12.60;76.40;;;;;;6134326;23;20040;-78
2024/01/12 09:44:55;;;;;;;13.27;5.20;;;12.70;76.30;;;;;;6184460;23;20020;-78
2024/01/12 09:47:20;;;;;;;14.52;5.20;;;12.70;76.20;;;;;;6183815;23;20011;-78
2024/01/12 09:49:46;;;;;;;11.38;4.30;;;12.60;76.20;;;;;;6182394;23;20017;-79
2024/01/12 09:52:12;;;;;;;12.02;4.88;;;12.60;76.40;;;;;;6216487;23;20394;-79
2024/01/12 09:58:43;;;;;;;14.25;5.13;;;12.60;76.40;;;;;;6212095;23;20008;-79
2024/01/12 10:25:08;;;;;;;41.17;7.15;;;12.50;75.60;;;;;;5980878;24;20355;-79
2024/01/12 10:42:00;;;;;;;29.73;6.93;;;12.60;76.10;;;;;;5940463;23;20037;-79
2024/01/12 10:44:54;;;;;;;25.35;7.35;;;12.40;76.00;;;;;;6157017;23;20004;-80
2024/01/12 10:48:16;;;;;;;20.38;6.47;;;12.40;76.20;;;;;;6148429;23;20096;-78
2024/01/12 11:01:34;;;;;;;20.85;5.85;;;12.60;76.40;;;;;;5894736;24;20040;-79
2024/01/12 11:08:51;;;;;;;;;;;;;;;;;;;;;
2024/01/12 11:12:05;;;;;;;20.48;6.85;;;12.50;76.40;;;;;;5797664;24;20097;-79
2024/01/12 11:14:21;;;;;;;15.70;5.65;;;12.60;77.10;;;;;;5802471;24;20011;-79
2024/01/12 11:43:34;;;;;;;16.65;5.70;;;12.50;76.80;;;;;;6069992;23;20033;-81
2024/01/12 11:53:08;;;;;;;13.80;5.90;;;12.50;76.80;;;;;;5954545;24;20057;-79
2024/01/12 12:02:31;;;;;;;12.57;5.25;;;12.30;76.90;;;;;;5959715;24;20082;-79
2024/01/12 12:05:17;;;;;;;12.82;5.72;;;12.40;77.00;;;;;;6165224;23;20332;-80
2024/01/12 12:18:41;;;;;;;10.88;4.90;;;12.40;77.10;;;;;;6122976;23;20037;-80
2024/01/12 12:41:24;;;;;;;11.52;4.75;;;12.40;77.20;;;;;;6141509;23;20474;-79
2024/01/12 12:43:50;;;;;;;9.95;5.00;;;12.40;77.10;;;;;;6182637;23;20005;-79
2024/01/12 12:46:19;;;;;;;10.32;5.07;;;12.40;77.10;;;;;;6160215;23;20005;-80
2024/01/12 12:48:45;;;;;;;12.35;4.40;;;12.40;77.20;;;;;;6160079;23;20020;-80
2024/01/12 12:51:11;;;;;;;11.18;4.97;;;12.30;77.10;;;;;;6159607;23;20004;-79
2024/01/12 12:53:36;;;;;;;9.95;5.00;;;12.40;77.10;;;;;;6160496;23;19997;-80
2024/01/12 12:56:03;;;;;;;9.63;4.60;;;12.40;77.20;;;;;;6159947;23;20435;-79
2024/01/12 12:58:31;;;;;;;9.23;4.38;;;12.40;77.20;;;;;;6162572;23;20099;-79
2024/01/12 13:00:56;;;;;;;13.00;4.95;;;12.40;77.30;;;;;;6160207;23;20001;-80
2024/01/12 13:03:22;;;;;;;9.65;4.88;;;12.40;77.20;;;;;;6160708;23;20008;-80
2024/01/12 13:05:48;;;;;;;10.48;5.00;;;12.40;77.20;;;;;;6159577;23;20012;-80
2024/01/12 13:08:15;;;;;;;9.15;4.50;;;12.40;77.20;;;;;;6160860;23;20312;-80
2024/01/12 13:10:41;;;;;;;11.48;4.53;;;12.40;77.30;;;;;;6159828;23;20071;-79
2024/01/12 13:13:06;;;;;;;11.48;4.75;;;12.30;77.20;;;;;;6160885;23;20402;-80
2024/01/12 13:15:34;;;;;;;9.20;4.72;;;12.40;77.10;;;;;;6160251;23;20032;-80
2024/01/12 13:17:59;;;;;;;11.25;4.20;;;12.40;77.30;;;;;;6157159;23;20008;-80
2024/01/12 13:20:25;;;;;;;8.57;4.47;;;12.40;77.30;;;;;;6156760;23;20013;-79
2024/01/12 13:22:51;;;;;;;8.23;4.10;;;12.40;77.30;;;;;;6157062;23;20059;-79
2024/01/12 13:25:16;;;;;;;9.30;4.50;;;12.40;77.30;;;;;;6156627;23;20012;-78
2024/01/12 13:27:42;;;;;;;10.13;4.13;;;12.30;77.20;;;;;;6157020;23;20008;-79
2024/01/12 13:30:08;;;;;;;9.60;4.28;;;12.30;77.30;;;;;;6157197;23;20183;-78
2024/01/12 13:32:34;;;;;;;9.63;4.72;;;12.30;77.30;;;;;;6155532;23;20009;-79
2024/01/12 13:35:00;;;;;;;9.35;4.63;;;12.30;77.40;;;;;;6155938;23;20375;-80
2024/01/12 13:37:25;;;;;;;10.18;4.40;;;12.40;77.40;;;;;;6160702;23;20439;-79
2024/01/12 13:39:51;;;;;;;8.70;4.40;;;12.30;77.30;;;;;;6160041;23;20314;-80
2024/01/12 13:42:16;;;;;;;8.02;4.22;;;12.30;77.40;;;;;;6161364;23;20060;-80
2024/01/12 13:44:42;;;;;;;7.97;4.18;;;12.40;77.40;;;;;;6160918;23;20059;-80
2024/01/12 13:47:08;;;;;;;9.77;4.40;;;12.40;77.40;;;;;;6163882;23;20080;-80
2024/01/12 13:49:33;;;;;;;8.05;4.30;;;12.30;77.30;;;;;;6188344;23;20001;-79
2024/01/12 13:51:59;;;;;;;8.30;4.30;;;12.40;77.40;;;;;;6161364;23;19997;-81
2024/01/12 13:54:26;;;;;;;9.30;3.95;;;12.40;77.40;;;;;;6160563;23;20008;-80
2024/01/12 13:56:52;;;;;;;10.90;4.57;;;12.40;77.50;;;;;;6159742;23;19997;-80
2024/01/12 13:59:17;;;;;;;8.57;4.20;;;12.30;77.40;;;;;;6160057;23;20005;-80
2024/01/12 14:01:43;;;;;;;7.55;4.05;;;12.30;77.40;;;;;;6161888;23;20005;-80
2024/01/12 14:04:11;;;;;;;9.85;4.40;;;12.30;77.40;;;;;;6163026;23;20348;-80
2024/01/12 14:06:37;;;;;;;7.53;4.35;;;12.30;77.40;;;;;;6160067;23;20005;-81
2024/01/12 14:09:04;;;;;;;7.25;3.83;;;12.30;77.40;;;;;;6157611;23;20005;-80
2024/01/12 14:11:33;;;;;;;9.00;4.40;;;12.20;77.40;;;;;;6157763;23;20009;-80
2024/01/12 14:13:58;;;;;;;8.52;3.97;;;12.30;77.40;;;;;;6159921;23;20506;-80
2024/01/12 14:16:25;;;;;;;8.43;4.22;;;12.30;77.50;;;;;;6158965;23;20032;-81
2024/01/12 14:18:56;;;;;;;7.90;4.03;;;12.30;77.60;;;;;;6167968;23;20088;-80
2024/01/12 14:21:23;;;;;;;7.65;3.78;;;12.20;77.50;;;;;;6154252;23;20015;-79
2024/01/12 14:24:52;;;;;;;6.85;3.67;;;12.30;77.70;;;;;;6159407;23;20011;-80
2024/01/12 14:27:28;;;;;;;8.70;4.20;;;12.30;77.50;;;;;;6193508;23;20510;-80
2024/01/12 14:30:32;;;;;;;8.65;4.18;;;12.20;77.50;;;;;;6195737;23;20093;-79
2024/01/12 14:33:34;;;;;;;9.10;3.55;;;12.20;77.50;;;;;;6153999;23;20019;-80
2024/01/12 14:46:48;;;;;;;7.90;3.95;;;12.30;77.40;;;;;;5994018;24;20072;-80
2024/01/12 14:49:47;;;;;;;8.00;3.40;;;12.20;77.30;;;;;;6005632;24;20008;-81
2024/01/12 14:52:26;;;;;;;8.25;4.05;;;12.20;77.40;;;;;;6009103;23;20035;-79
2024/01/12 14:55:06;;;;;;;6.97;3.80;;;12.20;77.50;;;;;;6213326;23;20028;-80
2024/01/12 14:57:32;;;;;;;7.18;3.97;;;12.20;77.50;;;;;;6204440;23;20001;-80
2024/01/12 15:00:00;;;;;;;8.57;4.03;;;12.20;77.50;;;;;;6174879;23;20099;-79
2024/01/12 15:02:26;;;;;;;8.32;4.20;;;12.10;77.50;;;;;;6176222;23;20009;-79
2024/01/12 15:04:51;;;;;;;7.00;3.80;;;12.20;77.60;;;;;;6175945;23;20448;-80
2024/01/12 15:07:18;;;;;;;7.65;3.75;;;12.20;77.60;;;;;;6200894;23;20420;-78
2024/01/12 15:09:44;;;;;;;7.22;3.83;;;12.30;77.60;;;;;;6174679;23;20009;-79
2024/01/12 15:12:10;;;;;;;6.85;3.60;;;12.20;77.60;;;;;;6175875;23;20078;-79
2024/01/12 15:14:35;;;;;;;7.15;3.53;;;12.30;77.70;;;;;;6176294;23;20001;-79
2024/01/12 15:17:01;;;;;;;7.03;3.88;;;12.20;77.60;;;;;;6168507;23;20085;-79
2024/01/12 15:19:27;;;;;;;5.55;3.28;;;12.20;77.70;;;;;;6168288;23;20028;-79
2024/01/12 15:21:54;;;;;;;6.18;3.17;;;12.20;77.60;;;;;;6167959;23;20001;-78
2024/01/12 15:24:19;;;;;;;9.27;3.72;;;12.20;77.80;;;;;;6168496;23;20012;-80
2024/01/12 15:26:46;;;;;;;7.35;3.67;;;12.20;77.80;;;;;;6169334;23;20001;-79
2024/01/12 15:29:12;;;;;;;7.63;3.53;;;12.20;77.80;;;;;;6170142;23;20002;-80
2024/01/12 15:31:40;;;;;;;7.07;3.85;;;12.20;78.40;;;;;;6171313;23;20049;-79
2024/01/12 15:34:50;;;;;;;6.88;3.65;;;12.20;77.80;;;;;;6212459;23;20024;-80
2024/01/12 15:37:22;;;;;;;6.32;3.60;;;12.20;77.80;;;;;;6211146;23;19989;-79
2024/01/12 15:39:57;;;;;;;6.60;3.30;;;12.10;77.70;;;;;;6210038;23;19990;-79
2024/01/12 15:42:30;;;;;;;8.60;3.80;;;12.20;77.80;;;;;;6211290;23;19996;-80
2024/01/12 15:45:10;;;;;;;6.32;3.80;;;12.20;77.80;;;;;;6183382;23;20436;-80
2024/01/12 15:47:57;;;;;;;7.47;3.58;;;12.20;77.90;;;;;;6149249;23;20056;-79
2024/01/12 15:50:23;;;;;;;7.20;3.95;;;12.40;78.00;;;;;;6141547;23;20013;-79
2024/01/12 15:53:13;;;;;;;7.35;4.00;;;13.60;78.60;;;;;;6145603;23;20010;-80
2024/01/12 15:55:38;;;;;;;6.25;3.88;;;12.00;77.80;;;;;;6155056;23;20027;-79
2024/01/12 15:58:04;;;;;;;6.85;3.50;;;12.10;77.90;;;;;;6183899;23;19985;-79